XIO222 LFPB-LFMD
Flight info
| Callsign | XIO222 |
|---|---|
| Flight time | 1h 29m |
| Altitude | 37000 |
| Route | LATRA DCT LAMUT DCT UTUVA DCT LERGA DCT LIQID DCT LATAM DCT MTL DCT XATEL |
| Aircraft | CL35/M-SBDE2E3FGHIJ1J3J4J5RWXYZ/LB1 |
Departure
| Time | 2026-04-21 19:24 |
|---|---|
| Airport | Paris-Le Bourget International Airport (LFPB) |
Arrival
| Time | 2026-04-21 20:53 |
|---|---|
| Airport | Cannes Mandelieu Airport (LFMD) |
| Time | Latitude | Longitude | Altitude | Speed | Heading |
|---|---|---|---|---|---|
| 2026-04-21 18:43 | 48.95645 | 2.44200 | 149 ft | 0 kts | 206° |
| 2026-04-21 19:12 | 48.95631 | 2.44190 | 149 ft | 6 kts | 207° |
| 2026-04-21 19:12 | 48.95625 | 2.44141 | 149 ft | 7 kts | 279° |
| 2026-04-21 19:12 | 48.95657 | 2.44045 | 150 ft | 13 kts | 339° |
| 2026-04-21 19:13 | 48.95712 | 2.44068 | 150 ft | 0 kts | 26° |
| 2026-04-21 19:13 | 48.95728 | 2.44084 | 150 ft | 9 kts | 49° |
| 2026-04-21 19:14 | 48.95745 | 2.44153 | 150 ft | 0 kts | 47° |
| 2026-04-21 19:15 | 48.95746 | 2.44155 | 150 ft | 1 kts | 46° |
| 2026-04-21 19:15 | 48.95753 | 2.44150 | 150 ft | 2 kts | 303° |
| 2026-04-21 19:15 | 48.95725 | 2.44077 | 150 ft | 13 kts | 203° |
| 2026-04-21 19:16 | 48.95702 | 2.43972 | 148 ft | 13 kts | 294° |
| 2026-04-21 19:16 | 48.95740 | 2.43850 | 149 ft | 12 kts | 294° |
| 2026-04-21 19:16 | 48.95775 | 2.43736 | 151 ft | 12 kts | 295° |
| 2026-04-21 19:16 | 48.95810 | 2.43623 | 151 ft | 13 kts | 294° |
| 2026-04-21 19:17 | 48.95864 | 2.43443 | 157 ft | 13 kts | 294° |
| 2026-04-21 19:17 | 48.95913 | 2.43284 | 154 ft | 20 kts | 295° |
| 2026-04-21 19:17 | 48.95980 | 2.43087 | 151 ft | 20 kts | 306° |
| 2026-04-21 19:18 | 48.96078 | 2.42903 | 147 ft | 23 kts | 309° |
| 2026-04-21 19:18 | 48.96178 | 2.42713 | 152 ft | 22 kts | 308° |
| 2026-04-21 19:18 | 48.96252 | 2.42568 | 156 ft | 8 kts | 307° |
| 2026-04-21 19:18 | 48.96268 | 2.42503 | 156 ft | 1 kts | 274° |
| 2026-04-21 19:19 | 48.96268 | 2.42496 | 156 ft | 0 kts | 275° |
| 2026-04-21 19:19 | 48.96268 | 2.42495 | 156 ft | 0 kts | 275° |
| 2026-04-21 19:19 | 48.96268 | 2.42494 | 156 ft | 2 kts | 275° |
| 2026-04-21 19:19 | 48.96270 | 2.42424 | 154 ft | 11 kts | 266° |
| 2026-04-21 19:20 | 48.96265 | 2.42286 | 154 ft | 14 kts | 267° |
| 2026-04-21 19:20 | 48.96262 | 2.42214 | 155 ft | 0 kts | 268° |
| 2026-04-21 19:22 | 48.96262 | 2.42210 | 155 ft | 2 kts | 268° |
| 2026-04-21 19:22 | 48.96261 | 2.42151 | 155 ft | 10 kts | 268° |
| 2026-04-21 19:22 | 48.96314 | 2.42058 | 152 ft | 17 kts | 342° |
| 2026-04-21 19:22 | 48.96374 | 2.42112 | 151 ft | 5 kts | 92° |
| 2026-04-21 19:23 | 48.96374 | 2.42120 | 151 ft | 0 kts | 88° |
| 2026-04-21 19:23 | 48.96375 | 2.42148 | 154 ft | 22 kts | 88° |
| 2026-04-21 19:23 | 48.96418 | 2.42900 | 165 ft | 117 kts | 85° |
| 2026-04-21 19:23 | 48.96512 | 2.44409 | 674 ft | 159 kts | 79° |
| 2026-04-21 19:24 | 48.96612 | 2.46126 | 2018 ft | 168 kts | 84° |
| 2026-04-21 19:24 | 48.96678 | 2.48082 | 3355 ft | 194 kts | 86° |
| 2026-04-21 19:24 | 48.96790 | 2.50218 | 4867 ft | 218 kts | 84° |
| 2026-04-21 19:24 | 48.96894 | 2.52648 | 5829 ft | 237 kts | 91° |
| 2026-04-21 19:25 | 48.96710 | 2.55138 | 6676 ft | 242 kts | 96° |
| 2026-04-21 19:25 | 48.96497 | 2.57760 | 7164 ft | 263 kts | 95° |
| 2026-04-21 19:25 | 48.96333 | 2.60540 | 7167 ft | 254 kts | 93° |
| 2026-04-21 19:25 | 48.96167 | 2.63295 | 7680 ft | 256 kts | 95° |
| 2026-04-21 19:26 | 48.95969 | 2.65937 | 8555 ft | 261 kts | 95° |
| 2026-04-21 19:26 | 48.95773 | 2.68752 | 9161 ft | 270 kts | 94° |
| 2026-04-21 19:26 | 48.95579 | 2.71614 | 9882 ft | 275 kts | 94° |
| 2026-04-21 19:26 | 48.95377 | 2.74555 | 10482 ft | 283 kts | 94° |
| 2026-04-21 19:27 | 48.95169 | 2.77547 | 11166 ft | 287 kts | 94° |
| 2026-04-21 19:27 | 48.94897 | 2.80576 | 11847 ft | 291 kts | 95° |
| 2026-04-21 19:27 | 48.94693 | 2.83665 | 12554 ft | 294 kts | 92° |
| 2026-04-21 19:27 | 48.94510 | 2.86793 | 13238 ft | 299 kts | 93° |
| 2026-04-21 19:28 | 48.94268 | 2.89958 | 13934 ft | 304 kts | 94° |
| 2026-04-21 19:28 | 48.94019 | 2.92076 | 14324 ft | 309 kts | 103° |
| 2026-04-21 19:28 | 48.92955 | 2.95020 | 14496 ft | 336 kts | 130° |
| 2026-04-21 19:28 | 48.90972 | 2.97113 | 14500 ft | 363 kts | 157° |
| 2026-04-21 19:29 | 48.88428 | 2.97764 | 14521 ft | 384 kts | 183° |
| 2026-04-21 19:29 | 48.85791 | 2.96727 | 14528 ft | 401 kts | 207° |
| 2026-04-21 19:29 | 48.83646 | 2.94073 | 15001 ft | 399 kts | 233° |
| 2026-04-21 19:29 | 48.82295 | 2.90442 | 15567 ft | 395 kts | 250° |
| 2026-04-21 19:30 | 48.81345 | 2.86523 | 16120 ft | 395 kts | 254° |
| 2026-04-21 19:30 | 48.80436 | 2.82576 | 16669 ft | 397 kts | 253° |
| 2026-04-21 19:30 | 48.79338 | 2.78711 | 17204 ft | 401 kts | 246° |
| 2026-04-21 19:30 | 48.77958 | 2.75064 | 17735 ft | 405 kts | 242° |
| 2026-04-21 19:31 | 48.76474 | 2.71427 | 18266 ft | 406 kts | 243° |
| 2026-04-21 19:31 | 48.75102 | 2.67689 | 18748 ft | 406 kts | 247° |
| 2026-04-21 19:31 | 48.73830 | 2.63855 | 19217 ft | 407 kts | 248° |
| 2026-04-21 19:31 | 48.72272 | 2.60163 | 19632 ft | 419 kts | 234° |
| 2026-04-21 19:32 | 48.70103 | 2.57247 | 20181 ft | 429 kts | 221° |
| 2026-04-21 19:32 | 48.67521 | 2.54888 | 20587 ft | 437 kts | 216° |
| 2026-04-21 19:32 | 48.64866 | 2.52601 | 21022 ft | 439 kts | 216° |
| 2026-04-21 19:32 | 48.62226 | 2.50256 | 21415 ft | 442 kts | 217° |
| 2026-04-21 19:33 | 48.59582 | 2.47856 | 21888 ft | 443 kts | 217° |
| 2026-04-21 19:33 | 48.56887 | 2.45543 | 22291 ft | 451 kts | 213° |
| 2026-04-21 19:33 | 48.53842 | 2.44096 | 22684 ft | 468 kts | 195° |
| 2026-04-21 19:33 | 48.50580 | 2.43541 | 23117 ft | 474 kts | 191° |
| 2026-04-21 19:34 | 48.47276 | 2.43111 | 23504 ft | 478 kts | 190° |
| 2026-04-21 19:34 | 48.43946 | 2.42747 | 23850 ft | 482 kts | 189° |
| 2026-04-21 19:34 | 48.40589 | 2.42382 | 24158 ft | 483 kts | 190° |
| 2026-04-21 19:34 | 48.37239 | 2.41942 | 24582 ft | 482 kts | 191° |
| 2026-04-21 19:35 | 48.33894 | 2.41509 | 24885 ft | 485 kts | 190° |
| 2026-04-21 19:35 | 48.27131 | 2.41762 | 25432 ft | 503 kts | 169° |
| 2026-04-21 19:35 | 48.23797 | 2.43399 | 25740 ft | 507 kts | 164° |
| 2026-04-21 19:36 | 48.20426 | 2.45242 | 26005 ft | 510 kts | 163° |
| 2026-04-21 19:36 | 48.17090 | 2.47062 | 26268 ft | 510 kts | 164° |
| 2026-04-21 19:36 | 48.13777 | 2.48795 | 26538 ft | 512 kts | 165° |
| 2026-04-21 19:36 | 48.10408 | 2.50546 | 26780 ft | 514 kts | 164° |
| 2026-04-21 19:37 | 48.07019 | 2.52269 | 27002 ft | 514 kts | 167° |
| 2026-04-21 19:37 | 48.03600 | 2.53914 | 27254 ft | 516 kts | 165° |
| 2026-04-21 19:37 | 48.00207 | 2.55687 | 27490 ft | 519 kts | 164° |
| 2026-04-21 19:37 | 47.96775 | 2.57432 | 27636 ft | 521 kts | 166° |
| 2026-04-21 19:38 | 47.93322 | 2.59068 | 27906 ft | 521 kts | 166° |
| 2026-04-21 19:38 | 47.89873 | 2.60719 | 28246 ft | 520 kts | 166° |
| 2026-04-21 19:38 | 47.86441 | 2.62444 | 28595 ft | 520 kts | 165° |
| 2026-04-21 19:38 | 47.83023 | 2.64150 | 28925 ft | 519 kts | 166° |
| 2026-04-21 19:39 | 47.79593 | 2.65799 | 29281 ft | 517 kts | 166° |
| 2026-04-21 19:39 | 47.76153 | 2.67456 | 29582 ft | 517 kts | 166° |
| 2026-04-21 19:39 | 47.72749 | 2.69137 | 29955 ft | 515 kts | 166° |
| 2026-04-21 19:39 | 47.69346 | 2.70809 | 30266 ft | 514 kts | 166° |
| 2026-04-21 19:40 | 47.65946 | 2.72452 | 30511 ft | 513 kts | 167° |
| 2026-04-21 19:40 | 47.62595 | 2.74070 | 30774 ft | 512 kts | 166° |
| 2026-04-21 19:40 | 47.59258 | 2.75708 | 32197 ft | 486 kts | 167° |
| 2026-04-21 19:40 | 47.56074 | 2.77259 | 32425 ft | 495 kts | 167° |
| 2026-04-21 19:41 | 47.52733 | 2.78838 | 32515 ft | 507 kts | 167° |
| 2026-04-21 19:41 | 47.49389 | 2.80455 | 33285 ft | 505 kts | 167° |
| 2026-04-21 19:41 | 47.46071 | 2.82089 | 34033 ft | 501 kts | 167° |
| 2026-04-21 19:41 | 47.42751 | 2.83686 | 34431 ft | 501 kts | 168° |
| 2026-04-21 19:42 | 47.39442 | 2.85256 | 34894 ft | 499 kts | 167° |
| 2026-04-21 19:42 | 47.36113 | 2.86855 | 35056 ft | 506 kts | 167° |
| 2026-04-21 19:42 | 47.32745 | 2.88481 | 35077 ft | 514 kts | 167° |
| 2026-04-21 19:43 | 47.25824 | 2.91791 | 35083 ft | 531 kts | 167° |
| 2026-04-21 19:43 | 47.22360 | 2.93457 | 35080 ft | 519 kts | 167° |
| 2026-04-21 19:43 | 47.18926 | 2.95106 | 35065 ft | 516 kts | 167° |
| 2026-04-21 19:44 | 47.12111 | 2.98328 | 35069 ft | 517 kts | 167° |
| 2026-04-21 19:44 | 47.05199 | 3.01205 | 35047 ft | 516 kts | 170° |
| 2026-04-21 19:45 | 46.98289 | 3.04057 | 35049 ft | 516 kts | 169° |
| 2026-04-21 19:45 | 46.91381 | 3.06889 | 35041 ft | 515 kts | 169° |
| 2026-04-21 19:46 | 46.84465 | 3.09724 | 35046 ft | 516 kts | 169° |
| 2026-04-21 19:46 | 46.77558 | 3.12541 | 35050 ft | 516 kts | 169° |
| 2026-04-21 19:47 | 46.70639 | 3.15362 | 35047 ft | 516 kts | 169° |
| 2026-04-21 19:47 | 46.63721 | 3.18171 | 35045 ft | 516 kts | 169° |
| 2026-04-21 19:48 | 46.56796 | 3.20977 | 35047 ft | 516 kts | 169° |
| 2026-04-21 19:48 | 46.49868 | 3.23775 | 35037 ft | 517 kts | 170° |
| 2026-04-21 19:49 | 46.42976 | 3.26551 | 35037 ft | 517 kts | 170° |
| 2026-04-21 19:49 | 46.36051 | 3.29337 | 35007 ft | 517 kts | 170° |
| 2026-04-21 19:50 | 46.30230 | 3.31668 | 35001 ft | 516 kts | 169° |
| 2026-04-21 19:50 | 46.22185 | 3.34886 | 34993 ft | 517 kts | 169° |
| 2026-04-21 19:51 | 46.15239 | 3.37655 | 34992 ft | 517 kts | 170° |
| 2026-04-21 19:51 | 46.08308 | 3.40414 | 34991 ft | 516 kts | 169° |
| 2026-04-21 19:52 | 46.01375 | 3.43161 | 35000 ft | 516 kts | 169° |
| 2026-04-21 19:52 | 45.94462 | 3.45899 | 35007 ft | 516 kts | 169° |
| 2026-04-21 19:53 | 45.87537 | 3.48631 | 35023 ft | 515 kts | 169° |
| 2026-04-21 19:53 | 45.80648 | 3.51565 | 35021 ft | 516 kts | 167° |
| 2026-04-21 19:54 | 45.73818 | 3.54502 | 35018 ft | 516 kts | 168° |
| 2026-04-21 19:54 | 45.66943 | 3.57460 | 35016 ft | 515 kts | 167° |
| 2026-04-21 19:55 | 45.60064 | 3.60407 | 35019 ft | 515 kts | 168° |
| 2026-04-21 19:55 | 45.53213 | 3.63338 | 35024 ft | 515 kts | 168° |
| 2026-04-21 19:56 | 45.46345 | 3.66266 | 35012 ft | 514 kts | 168° |
| 2026-04-21 19:56 | 45.39486 | 3.69186 | 35012 ft | 514 kts | 168° |
| 2026-04-21 19:57 | 45.32766 | 3.72540 | 35013 ft | 519 kts | 159° |
| 2026-04-21 19:57 | 45.26594 | 3.77900 | 35012 ft | 524 kts | 145° |
| 2026-04-21 19:58 | 45.21358 | 3.85156 | 35022 ft | 527 kts | 130° |
| 2026-04-21 19:58 | 45.17232 | 3.93734 | 35023 ft | 528 kts | 123° |
| 2026-04-21 19:59 | 45.13220 | 4.02470 | 35026 ft | 528 kts | 124° |
| 2026-04-21 19:59 | 45.09231 | 4.11210 | 35021 ft | 528 kts | 124° |
| 2026-04-21 20:00 | 45.05192 | 4.19896 | 35012 ft | 527 kts | 127° |
| 2026-04-21 20:00 | 45.00284 | 4.27429 | 35009 ft | 523 kts | 141° |
| 2026-04-21 20:01 | 44.94635 | 4.33860 | 35003 ft | 521 kts | 143° |
| 2026-04-21 20:01 | 44.88991 | 4.40304 | 34996 ft | 520 kts | 144° |
| 2026-04-21 20:02 | 44.84292 | 4.45602 | 34992 ft | 520 kts | 144° |
| 2026-04-21 20:02 | 44.77699 | 4.53069 | 34991 ft | 519 kts | 144° |
| 2026-04-21 20:03 | 44.72104 | 4.59361 | 34981 ft | 518 kts | 144° |
| 2026-04-21 20:03 | 44.66471 | 4.65698 | 34969 ft | 518 kts | 144° |
| 2026-04-21 20:04 | 44.60842 | 4.72005 | 34971 ft | 518 kts | 144° |
| 2026-04-21 20:04 | 44.55230 | 4.78399 | 34952 ft | 520 kts | 140° |
| 2026-04-21 20:05 | 44.50124 | 4.85593 | 34950 ft | 521 kts | 137° |
| 2026-04-21 20:05 | 44.44973 | 4.92757 | 34948 ft | 522 kts | 137° |
| 2026-04-21 20:06 | 44.39839 | 5.00018 | 34384 ft | 535 kts | 136° |
| 2026-04-21 20:06 | 44.37227 | 5.03651 | 33663 ft | 532 kts | 137° |
| 2026-04-21 20:06 | 44.34588 | 5.07308 | 32943 ft | 524 kts | 137° |
| 2026-04-21 20:06 | 44.32072 | 5.10832 | 32270 ft | 516 kts | 136° |
| 2026-04-21 20:07 | 44.29553 | 5.14350 | 31601 ft | 508 kts | 137° |
| 2026-04-21 20:07 | 44.26881 | 5.17513 | 30937 ft | 499 kts | 145° |
| 2026-04-21 20:07 | 44.24957 | 5.19366 | 30502 ft | 493 kts | 150° |
| 2026-04-21 20:07 | 44.20993 | 5.22469 | 29616 ft | 499 kts | 154° |
| 2026-04-21 20:08 | 44.17921 | 5.24804 | 28966 ft | 505 kts | 154° |
| 2026-04-21 20:08 | 44.14845 | 5.27185 | 28314 ft | 505 kts | 153° |
| 2026-04-21 20:08 | 44.11764 | 5.29547 | 27649 ft | 502 kts | 154° |
| 2026-04-21 20:08 | 44.08709 | 5.31851 | 26993 ft | 499 kts | 154° |
| 2026-04-21 20:09 | 44.05657 | 5.34164 | 26353 ft | 497 kts | 154° |
| 2026-04-21 20:09 | 44.02621 | 5.36486 | 25711 ft | 496 kts | 153° |
| 2026-04-21 20:09 | 43.99638 | 5.38754 | 25077 ft | 492 kts | 154° |
| 2026-04-21 20:09 | 43.96657 | 5.41001 | 24442 ft | 484 kts | 154° |
| 2026-04-21 20:10 | 43.93738 | 5.43212 | 23822 ft | 471 kts | 154° |
| 2026-04-21 20:10 | 43.90902 | 5.45360 | 23181 ft | 459 kts | 154° |
| 2026-04-21 20:10 | 43.88140 | 5.47438 | 22592 ft | 445 kts | 154° |
| 2026-04-21 20:10 | 43.85456 | 5.49455 | 22023 ft | 433 kts | 154° |
| 2026-04-21 20:11 | 43.82841 | 5.51426 | 21472 ft | 422 kts | 154° |
| 2026-04-21 20:11 | 43.80281 | 5.53351 | 20928 ft | 413 kts | 154° |
| 2026-04-21 20:11 | 43.77786 | 5.55223 | 20405 ft | 404 kts | 154° |
| 2026-04-21 20:11 | 43.75426 | 5.57261 | 19739 ft | 400 kts | 142° |
| 2026-04-21 20:12 | 43.73596 | 5.60136 | 18922 ft | 388 kts | 127° |
| 2026-04-21 20:12 | 43.72058 | 5.62999 | 18190 ft | 350 kts | 128° |
| 2026-04-21 20:12 | 43.71109 | 5.64704 | 17679 ft | 326 kts | 129° |
| 2026-04-21 20:12 | 43.69721 | 5.67105 | 16948 ft | 319 kts | 130° |
| 2026-04-21 20:13 | 43.68353 | 5.69502 | 16252 ft | 316 kts | 129° |
| 2026-04-21 20:13 | 43.67021 | 5.71888 | 15610 ft | 312 kts | 129° |
| 2026-04-21 20:13 | 43.65688 | 5.74248 | 14985 ft | 309 kts | 129° |
| 2026-04-21 20:13 | 43.64361 | 5.76560 | 14384 ft | 304 kts | 129° |
| 2026-04-21 20:14 | 43.63057 | 5.78849 | 13787 ft | 302 kts | 129° |
| 2026-04-21 20:14 | 43.61784 | 5.81095 | 13164 ft | 300 kts | 129° |
| 2026-04-21 20:14 | 43.60481 | 5.83375 | 12577 ft | 297 kts | 129° |
| 2026-04-21 20:14 | 43.59218 | 5.85588 | 12210 ft | 297 kts | 129° |
| 2026-04-21 20:15 | 43.57926 | 5.87850 | 11967 ft | 293 kts | 129° |
| 2026-04-21 20:15 | 43.56690 | 5.90018 | 11926 ft | 291 kts | 129° |
| 2026-04-21 20:15 | 43.55441 | 5.92205 | 11921 ft | 290 kts | 129° |
| 2026-04-21 20:15 | 43.54199 | 5.94397 | 11922 ft | 290 kts | 129° |
| 2026-04-21 20:16 | 43.52949 | 5.96579 | 11925 ft | 290 kts | 129° |
| 2026-04-21 20:16 | 43.51710 | 5.98755 | 11928 ft | 289 kts | 129° |
| 2026-04-21 20:16 | 43.50476 | 6.00933 | 11919 ft | 289 kts | 129° |
| 2026-04-21 20:16 | 43.49217 | 6.03125 | 11691 ft | 294 kts | 129° |
| 2026-04-21 20:17 | 43.48022 | 6.05433 | 11439 ft | 299 kts | 123° |
| 2026-04-21 20:17 | 43.46924 | 6.07916 | 11037 ft | 308 kts | 121° |
| 2026-04-21 20:17 | 43.45759 | 6.10449 | 10619 ft | 317 kts | 124° |
| 2026-04-21 20:17 | 43.44501 | 6.12984 | 10181 ft | 325 kts | 125° |
| 2026-04-21 20:18 | 43.43230 | 6.15586 | 9969 ft | 324 kts | 124° |
| 2026-04-21 20:18 | 43.42013 | 6.18157 | 9935 ft | 317 kts | 123° |
| 2026-04-21 20:18 | 43.40800 | 6.20700 | 9589 ft | 320 kts | 124° |
| 2026-04-21 20:18 | 43.39570 | 6.23228 | 9438 ft | 316 kts | 124° |
| 2026-04-21 20:19 | 43.38353 | 6.25743 | 9210 ft | 315 kts | 124° |
| 2026-04-21 20:19 | 43.37146 | 6.28255 | 9010 ft | 314 kts | 124° |
| 2026-04-21 20:19 | 43.35945 | 6.30746 | 8805 ft | 312 kts | 124° |
| 2026-04-21 20:19 | 43.34745 | 6.33221 | 8589 ft | 311 kts | 124° |
| 2026-04-21 20:20 | 43.33575 | 6.35641 | 8537 ft | 291 kts | 124° |
| 2026-04-21 20:20 | 43.32479 | 6.37840 | 8350 ft | 271 kts | 129° |
| 2026-04-21 20:20 | 43.30999 | 6.39332 | 7931 ft | 267 kts | 162° |
| 2026-04-21 20:20 | 43.29217 | 6.39690 | 7606 ft | 256 kts | 188° |
| 2026-04-21 20:21 | 43.27559 | 6.38972 | 7209 ft | 247 kts | 214° |
| 2026-04-21 20:21 | 43.26323 | 6.37398 | 6993 ft | 242 kts | 239° |
| 2026-04-21 20:21 | 43.25682 | 6.35319 | 6949 ft | 236 kts | 262° |
| 2026-04-21 20:21 | 43.25709 | 6.33107 | 6941 ft | 230 kts | 284° |
| 2026-04-21 20:22 | 43.26349 | 6.31130 | 6936 ft | 226 kts | 302° |
| 2026-04-21 20:22 | 43.28007 | 6.27492 | 6944 ft | 227 kts | 301° |
| 2026-04-21 20:22 | 43.28841 | 6.25632 | 6950 ft | 231 kts | 302° |
| 2026-04-21 20:23 | 43.29697 | 6.23749 | 6949 ft | 234 kts | 302° |
| 2026-04-21 20:23 | 43.30582 | 6.21865 | 6942 ft | 236 kts | 308° |
| 2026-04-21 20:23 | 43.31929 | 6.20584 | 6934 ft | 241 kts | 336° |
| 2026-04-21 20:23 | 43.33587 | 6.20172 | 6932 ft | 246 kts | 359° |
| 2026-04-21 20:24 | 43.35249 | 6.20766 | 6930 ft | 252 kts | 23° |
| 2026-04-21 20:24 | 43.36597 | 6.22326 | 6930 ft | 258 kts | 49° |
| 2026-04-21 20:24 | 43.37324 | 6.24585 | 6930 ft | 264 kts | 77° |
| 2026-04-21 20:24 | 43.37235 | 6.27103 | 6932 ft | 267 kts | 105° |
| 2026-04-21 20:25 | 43.36394 | 6.29369 | 6941 ft | 267 kts | 122° |
| 2026-04-21 20:25 | 43.35392 | 6.31511 | 6950 ft | 266 kts | 122° |
| 2026-04-21 20:25 | 43.34427 | 6.33645 | 6951 ft | 266 kts | 121° |
| 2026-04-21 20:25 | 43.33454 | 6.35802 | 6952 ft | 266 kts | 122° |
| 2026-04-21 20:26 | 43.32444 | 6.37929 | 6946 ft | 265 kts | 128° |
| 2026-04-21 20:26 | 43.30981 | 6.39425 | 6931 ft | 263 kts | 160° |
| 2026-04-21 20:26 | 43.29209 | 6.39825 | 6933 ft | 258 kts | 187° |
| 2026-04-21 20:26 | 43.27530 | 6.39131 | 6931 ft | 250 kts | 213° |
| 2026-04-21 20:27 | 43.26270 | 6.37567 | 6932 ft | 242 kts | 238° |
| 2026-04-21 20:27 | 43.25618 | 6.35488 | 6933 ft | 236 kts | 262° |
| 2026-04-21 20:27 | 43.25641 | 6.33260 | 6930 ft | 234 kts | 284° |
| 2026-04-21 20:27 | 43.26295 | 6.31248 | 6933 ft | 232 kts | 302° |
| 2026-04-21 20:28 | 43.27164 | 6.29391 | 6939 ft | 231 kts | 302° |
| 2026-04-21 20:28 | 43.28000 | 6.27513 | 6943 ft | 230 kts | 301° |
| 2026-04-21 20:28 | 43.28836 | 6.25631 | 6945 ft | 231 kts | 302° |
| 2026-04-21 20:28 | 43.29687 | 6.23759 | 6945 ft | 231 kts | 302° |
| 2026-04-21 20:29 | 43.30570 | 6.21948 | 6937 ft | 231 kts | 310° |
| 2026-04-21 20:29 | 43.31871 | 6.20666 | 6932 ft | 234 kts | 334° |
| 2026-04-21 20:29 | 43.33466 | 6.20201 | 6930 ft | 238 kts | 357° |
| 2026-04-21 20:29 | 43.35098 | 6.20689 | 6932 ft | 244 kts | 20° |
| 2026-04-21 20:30 | 43.36461 | 6.22108 | 6930 ft | 252 kts | 46° |
| 2026-04-21 20:30 | 43.37270 | 6.24266 | 6928 ft | 259 kts | 73° |
| 2026-04-21 20:30 | 43.37299 | 6.26737 | 6933 ft | 263 kts | 101° |
| 2026-04-21 20:30 | 43.36547 | 6.29028 | 6939 ft | 264 kts | 122° |
| 2026-04-21 20:31 | 43.35560 | 6.31143 | 6948 ft | 263 kts | 122° |
| 2026-04-21 20:31 | 43.34587 | 6.33278 | 6948 ft | 263 kts | 121° |
| 2026-04-21 20:31 | 43.33626 | 6.35421 | 6949 ft | 264 kts | 121° |
| 2026-04-21 20:31 | 43.32659 | 6.37526 | 6945 ft | 264 kts | 124° |
| 2026-04-21 20:32 | 43.31325 | 6.39210 | 6929 ft | 263 kts | 155° |
| 2026-04-21 20:32 | 43.29584 | 6.39834 | 6936 ft | 257 kts | 181° |
| 2026-04-21 20:32 | 43.27860 | 6.39361 | 6934 ft | 251 kts | 208° |
| 2026-04-21 20:32 | 43.26494 | 6.37962 | 6929 ft | 243 kts | 233° |
| 2026-04-21 20:33 | 43.25706 | 6.35972 | 6934 ft | 237 kts | 256° |
| 2026-04-21 20:33 | 43.25576 | 6.33751 | 6930 ft | 234 kts | 279° |
| 2026-04-21 20:33 | 43.26106 | 6.31663 | 6930 ft | 232 kts | 300° |
| 2026-04-21 20:33 | 43.26965 | 6.29802 | 6937 ft | 231 kts | 302° |
| 2026-04-21 20:34 | 43.27812 | 6.27934 | 6941 ft | 230 kts | 301° |
| 2026-04-21 20:34 | 43.28652 | 6.26055 | 6944 ft | 231 kts | 302° |
| 2026-04-21 20:34 | 43.29499 | 6.24185 | 6943 ft | 231 kts | 302° |
| 2026-04-21 20:34 | 43.30361 | 6.22317 | 6942 ft | 231 kts | 305° |
| 2026-04-21 20:35 | 43.31549 | 6.20885 | 6934 ft | 233 kts | 329° |
| 2026-04-21 20:35 | 43.33096 | 6.20225 | 6928 ft | 237 kts | 352° |
| 2026-04-21 20:35 | 43.34746 | 6.20496 | 6930 ft | 243 kts | 15° |
| 2026-04-21 20:35 | 43.36196 | 6.21719 | 6931 ft | 250 kts | 40° |
| 2026-04-21 20:36 | 43.37151 | 6.23736 | 6928 ft | 258 kts | 66° |
| 2026-04-21 20:36 | 43.37365 | 6.26185 | 6930 ft | 262 kts | 95° |
| 2026-04-21 20:36 | 43.36759 | 6.28547 | 6938 ft | 264 kts | 120° |
| 2026-04-21 20:36 | 43.35781 | 6.30672 | 6949 ft | 263 kts | 123° |
| 2026-04-21 20:37 | 43.34802 | 6.32799 | 6950 ft | 263 kts | 121° |
| 2026-04-21 20:37 | 43.33837 | 6.34940 | 6949 ft | 264 kts | 122° |
| 2026-04-21 20:37 | 43.32868 | 6.37081 | 6949 ft | 264 kts | 122° |
| 2026-04-21 20:37 | 43.31659 | 6.38947 | 6924 ft | 264 kts | 148° |
| 2026-04-21 20:38 | 43.29960 | 6.39794 | 6936 ft | 258 kts | 175° |
| 2026-04-21 20:38 | 43.28204 | 6.39549 | 6932 ft | 252 kts | 202° |
| 2026-04-21 20:38 | 43.26743 | 6.38324 | 6930 ft | 245 kts | 228° |
| 2026-04-21 20:38 | 43.25818 | 6.36425 | 6933 ft | 238 kts | 252° |
| 2026-04-21 20:39 | 43.25548 | 6.34228 | 6934 ft | 234 kts | 274° |
| 2026-04-21 20:39 | 43.25942 | 6.32086 | 6933 ft | 232 kts | 296° |
| 2026-04-21 20:39 | 43.26781 | 6.30207 | 6942 ft | 231 kts | 303° |
| 2026-04-21 20:39 | 43.27645 | 6.28357 | 6938 ft | 230 kts | 306° |
| 2026-04-21 20:40 | 43.28923 | 6.27128 | 6927 ft | 234 kts | 342° |
| 2026-04-21 20:40 | 43.30562 | 6.27293 | 6822 ft | 243 kts | 20° |
| 2026-04-21 20:40 | 43.31804 | 6.28842 | 6697 ft | 253 kts | 57° |
| 2026-04-21 20:40 | 43.32201 | 6.31200 | 6597 ft | 258 kts | 87° |
| 2026-04-21 20:41 | 43.32116 | 6.33664 | 6489 ft | 258 kts | 92° |
| 2026-04-21 20:41 | 43.31986 | 6.36106 | 6474 ft | 254 kts | 92° |
| 2026-04-21 20:41 | 43.31849 | 6.38501 | 6479 ft | 249 kts | 92° |
| 2026-04-21 20:41 | 43.31708 | 6.40832 | 6490 ft | 240 kts | 93° |
| 2026-04-21 20:42 | 43.31569 | 6.43084 | 6453 ft | 234 kts | 93° |
| 2026-04-21 20:42 | 43.31432 | 6.45318 | 6309 ft | 235 kts | 93° |
| 2026-04-21 20:42 | 43.31295 | 6.47540 | 6183 ft | 233 kts | 93° |
| 2026-04-21 20:42 | 43.31159 | 6.49759 | 6031 ft | 231 kts | 92° |
| 2026-04-21 20:43 | 43.31029 | 6.51924 | 5853 ft | 228 kts | 93° |
| 2026-04-21 20:43 | 43.30897 | 6.54143 | 5590 ft | 234 kts | 93° |
| 2026-04-21 20:43 | 43.30809 | 6.55603 | 5494 ft | 232 kts | 93° |
| 2026-04-21 20:43 | 43.30679 | 6.57763 | 5304 ft | 231 kts | 93° |
| 2026-04-21 20:44 | 43.30551 | 6.59967 | 5115 ft | 231 kts | 93° |
| 2026-04-21 20:44 | 43.30423 | 6.62168 | 4939 ft | 231 kts | 93° |
| 2026-04-21 20:44 | 43.30293 | 6.64354 | 4786 ft | 230 kts | 93° |
| 2026-04-21 20:44 | 43.30169 | 6.66548 | 4611 ft | 230 kts | 93° |
| 2026-04-21 20:45 | 43.30087 | 6.67990 | 4516 ft | 229 kts | 93° |
| 2026-04-21 20:45 | 43.29927 | 6.70863 | 4324 ft | 227 kts | 93° |
| 2026-04-21 20:45 | 43.29810 | 6.73015 | 4181 ft | 225 kts | 93° |
| 2026-04-21 20:45 | 43.30031 | 6.75099 | 4017 ft | 221 kts | 64° |
| 2026-04-21 20:46 | 43.30779 | 6.76912 | 3884 ft | 218 kts | 58° |
| 2026-04-21 20:46 | 43.31429 | 6.78795 | 3730 ft | 218 kts | 67° |
| 2026-04-21 20:46 | 43.31949 | 6.80748 | 3591 ft | 217 kts | 68° |
| 2026-04-21 20:46 | 43.32503 | 6.82665 | 3456 ft | 215 kts | 66° |
| 2026-04-21 20:47 | 43.33069 | 6.84563 | 3315 ft | 214 kts | 67° |
| 2026-04-21 20:47 | 43.33614 | 6.86461 | 3182 ft | 213 kts | 68° |
| 2026-04-21 20:47 | 43.34159 | 6.88345 | 2996 ft | 212 kts | 67° |
| 2026-04-21 20:47 | 43.34705 | 6.90220 | 2804 ft | 211 kts | 68° |
| 2026-04-21 20:48 | 43.35247 | 6.92086 | 2633 ft | 210 kts | 68° |
| 2026-04-21 20:48 | 43.35786 | 6.93950 | 2458 ft | 209 kts | 68° |
| 2026-04-21 20:48 | 43.36325 | 6.95796 | 2282 ft | 207 kts | 66° |
| 2026-04-21 20:48 | 43.37195 | 6.97336 | 2090 ft | 206 kts | 32° |
| 2026-04-21 20:49 | 43.38529 | 6.97927 | 2033 ft | 204 kts | 3° |
| 2026-04-21 20:49 | 43.39942 | 6.97718 | 2025 ft | 205 kts | 352° |
| 2026-04-21 20:49 | 43.41364 | 6.97448 | 2017 ft | 208 kts | 353° |
| 2026-04-21 20:49 | 43.42811 | 6.97206 | 2010 ft | 210 kts | 354° |
| 2026-04-21 20:50 | 43.44265 | 6.96959 | 2005 ft | 211 kts | 354° |
| 2026-04-21 20:50 | 43.45698 | 6.96697 | 1952 ft | 205 kts | 354° |
| 2026-04-21 20:50 | 43.47064 | 6.96447 | 1654 ft | 186 kts | 354° |
| 2026-04-21 20:50 | 43.48202 | 6.96246 | 1392 ft | 145 kts | 355° |
| 2026-04-21 20:51 | 43.49044 | 6.96098 | 1064 ft | 112 kts | 355° |
| 2026-04-21 20:51 | 43.49777 | 6.95995 | 735 ft | 102 kts | 355° |
| 2026-04-21 20:51 | 43.50528 | 6.95864 | 627 ft | 118 kts | 354° |
| 2026-04-21 20:51 | 43.51321 | 6.95722 | 587 ft | 116 kts | 353° |
| 2026-04-21 20:52 | 43.52146 | 6.95574 | 487 ft | 121 kts | 353° |
| 2026-04-21 20:52 | 43.52944 | 6.95422 | 322 ft | 113 kts | 353° |
| 2026-04-21 20:52 | 43.53736 | 6.95277 | 178 ft | 114 kts | 353° |
| 2026-04-21 20:52 | 43.54485 | 6.95146 | 25 ft | 98 kts | 353° |
| 2026-04-21 20:53 | 43.54955 | 6.95060 | 10 ft | 19 kts | 354° |
| 2026-04-21 20:53 | 43.55000 | 6.95109 | 10 ft | 7 kts | 79° |
| 2026-04-21 20:53 | 43.55005 | 6.95172 | 12 ft | 4 kts | 84° |
| 2026-04-21 20:53 | 43.54999 | 6.95210 | 12 ft | 4 kts | 137° |
| 2026-04-21 20:54 | 43.54965 | 6.95225 | 12 ft | 6 kts | 174° |
| 2026-04-21 20:54 | 43.54915 | 6.95233 | 12 ft | 7 kts | 171° |
| 2026-04-21 20:54 | 43.54914 | 6.95233 | 12 ft | 0 kts | 171° |
| 2026-04-21 20:55 | 43.54903 | 6.95235 | 12 ft | 6 kts | 171° |
| 2026-04-21 20:55 | 43.54812 | 6.95254 | 12 ft | 20 kts | 172° |
| 2026-04-21 20:55 | 43.54706 | 6.95272 | 11 ft | 4 kts | 173° |
| 2026-04-21 20:56 | 43.54697 | 6.95300 | 11 ft | 5 kts | 81° |
| 2026-04-21 20:56 | 43.54696 | 6.95334 | 11 ft | 2 kts | 120° |
| 2026-04-21 20:56 | 43.54684 | 6.95339 | 11 ft | 1 kts | 180° |
| 2026-04-21 20:56 | 43.54675 | 6.95339 | 11 ft | 0 kts | 177° |